sensor_id;sensor_type;location;lat;lon;timestamp;P1;durP1;ratioP1;P2;durP2;ratioP2
52590;SDS011;38483;42.620;25.394;2023-03-14T00:01:45;6.77;;;3.97;;
52590;SDS011;38483;42.620;25.394;2023-03-14T00:04:12;5.13;;;2.97;;
52590;SDS011;38483;42.620;25.394;2023-03-14T00:06:39;3.83;;;3.43;;
52590;SDS011;38483;42.620;25.394;2023-03-14T00:09:06;6.57;;;3.83;;
52590;SDS011;38483;42.620;25.394;2023-03-14T00:11:33;5.07;;;3.40;;
52590;SDS011;38483;42.620;25.394;2023-03-14T00:14:00;5.33;;;3.47;;
52590;SDS011;38483;42.620;25.394;2023-03-14T00:16:29;5.73;;;3.73;;
52590;SDS011;38483;42.620;25.394;2023-03-14T00:18:56;7.17;;;4.57;;
52590;SDS011;38483;42.620;25.394;2023-03-14T00:21:25;8.73;;;4.90;;
52590;SDS011;38483;42.620;25.394;2023-03-14T00:23:52;8.20;;;5.63;;
52590;SDS011;38483;42.620;25.394;2023-03-14T00:26:19;8.47;;;5.97;;
52590;SDS011;38483;42.620;25.394;2023-03-14T00:28:50;11.37;;;6.67;;
52590;SDS011;38483;42.620;25.394;2023-03-14T00:31:19;8.93;;;6.13;;
52590;SDS011;38483;42.620;25.394;2023-03-14T00:33:46;8.43;;;5.87;;
52590;SDS011;38483;42.620;25.394;2023-03-14T00:36:16;8.97;;;6.37;;
52590;SDS011;38483;42.620;25.394;2023-03-14T00:38:45;9.37;;;6.10;;
52590;SDS011;38483;42.620;25.394;2023-03-14T00:41:17;9.27;;;5.60;;
52590;SDS011;38483;42.620;25.394;2023-03-14T00:43:46;7.37;;;5.90;;
52590;SDS011;38483;42.620;25.394;2023-03-14T00:46:13;9.07;;;6.53;;
52590;SDS011;38483;42.620;25.394;2023-03-14T00:48:44;9.73;;;7.10;;
52590;SDS011;38483;42.620;25.394;2023-03-14T00:51:12;9.67;;;7.07;;
52590;SDS011;38483;42.620;25.394;2023-03-14T00:53:43;9.83;;;6.67;;
52590;SDS011;38483;42.620;25.394;2023-03-14T00:56:11;9.60;;;7.57;;
52590;SDS011;38483;42.620;25.394;2023-03-14T00:58:39;10.00;;;7.53;;
52590;SDS011;38483;42.620;25.394;2023-03-14T01:01:13;12.40;;;7.80;;
52590;SDS011;38483;42.620;25.394;2023-03-14T01:03:42;16.57;;;10.20;;
52590;SDS011;38483;42.620;25.394;2023-03-14T01:06:10;12.53;;;8.00;;
52590;SDS011;38483;42.620;25.394;2023-03-14T01:08:42;9.80;;;7.67;;
52590;SDS011;38483;42.620;25.394;2023-03-14T01:11:11;10.53;;;7.40;;
52590;SDS011;38483;42.620;25.394;2023-03-14T01:13:40;12.30;;;7.60;;
52590;SDS011;38483;42.620;25.394;2023-03-14T01:16:07;11.20;;;7.07;;
52590;SDS011;38483;42.620;25.394;2023-03-14T01:18:37;12.17;;;7.33;;
52590;SDS011;38483;42.620;25.394;2023-03-14T01:21:09;13.40;;;8.77;;
52590;SDS011;38483;42.620;25.394;2023-03-14T01:23:39;12.57;;;8.83;;
52590;SDS011;38483;42.620;25.394;2023-03-14T01:26:08;12.23;;;8.13;;
52590;SDS011;38483;42.620;25.394;2023-03-14T01:28:37;13.70;;;8.13;;
52590;SDS011;38483;42.620;25.394;2023-03-14T01:31:05;12.10;;;6.83;;
52590;SDS011;38483;42.620;25.394;2023-03-14T01:33:34;11.30;;;7.47;;
52590;SDS011;38483;42.620;25.394;2023-03-14T01:36:01;12.23;;;7.50;;
52590;SDS011;38483;42.620;25.394;2023-03-14T01:38:29;11.70;;;7.70;;
52590;SDS011;38483;42.620;25.394;2023-03-14T01:40:58;9.27;;;7.13;;
52590;SDS011;38483;42.620;25.394;2023-03-14T01:43:25;8.60;;;6.00;;
52590;SDS011;38483;42.620;25.394;2023-03-14T01:48:38;8.47;;;5.63;;
52590;SDS011;38483;42.620;25.394;2023-03-14T01:51:14;6.47;;;4.80;;
52590;SDS011;38483;42.620;25.394;2023-03-14T01:53:47;8.57;;;5.87;;
52590;SDS011;38483;42.620;25.394;2023-03-14T01:56:17;7.63;;;5.20;;
52590;SDS011;38483;42.620;25.394;2023-03-14T01:58:46;7.17;;;5.33;;
52590;SDS011;38483;42.620;25.394;2023-03-14T02:01:18;10.43;;;7.37;;
52590;SDS011;38483;42.620;25.394;2023-03-14T02:03:50;15.73;;;9.10;;
52590;SDS011;38483;42.620;25.394;2023-03-14T02:06:26;15.17;;;10.70;;
52590;SDS011;38483;42.620;25.394;2023-03-14T02:09:00;18.37;;;10.83;;
52590;SDS011;38483;42.620;25.394;2023-03-14T02:11:30;17.60;;;10.50;;
52590;SDS011;38483;42.620;25.394;2023-03-14T02:14:02;15.67;;;10.37;;
52590;SDS011;38483;42.620;25.394;2023-03-14T02:17:03;14.00;;;9.40;;
52590;SDS011;38483;42.620;25.394;2023-03-14T02:22:42;15.23;;;11.80;;
52590;SDS011;38483;42.620;25.394;2023-03-14T02:25:16;16.00;;;12.27;;
52590;SDS011;38483;42.620;25.394;2023-03-14T02:27:49;17.50;;;11.97;;
52590;SDS011;38483;42.620;25.394;2023-03-14T02:30:18;15.33;;;10.63;;
52590;SDS011;38483;42.620;25.394;2023-03-14T02:32:51;13.90;;;10.23;;
52590;SDS011;38483;42.620;25.394;2023-03-14T02:35:23;16.50;;;9.97;;
52590;SDS011;38483;42.620;25.394;2023-03-14T02:37:59;10.90;;;8.90;;
52590;SDS011;38483;42.620;25.394;2023-03-14T02:40:34;11.87;;;8.20;;
52590;SDS011;38483;42.620;25.394;2023-03-14T02:43:01;10.30;;;7.43;;
52590;SDS011;38483;42.620;25.394;2023-03-14T02:45:37;11.00;;;7.50;;
52590;SDS011;38483;42.620;25.394;2023-03-14T02:48:17;10.50;;;7.20;;
52590;SDS011;38483;42.620;25.394;2023-03-14T02:50:53;10.43;;;7.67;;
52590;SDS011;38483;42.620;25.394;2023-03-14T02:53:33;11.03;;;7.07;;
52590;SDS011;38483;42.620;25.394;2023-03-14T02:56:06;8.03;;;6.27;;
52590;SDS011;38483;42.620;25.394;2023-03-14T02:58:35;7.50;;;6.23;;
52590;SDS011;38483;42.620;25.394;2023-03-14T03:01:11;9.10;;;6.50;;
52590;SDS011;38483;42.620;25.394;2023-03-14T03:03:38;7.97;;;5.73;;
52590;SDS011;38483;42.620;25.394;2023-03-14T03:06:05;12.30;;;6.70;;
52590;SDS011;38483;42.620;25.394;2023-03-14T03:08:33;9.73;;;6.77;;
52590;SDS011;38483;42.620;25.394;2023-03-14T03:11:00;10.80;;;7.10;;
52590;SDS011;38483;42.620;25.394;2023-03-14T03:13:29;9.67;;;6.47;;
52590;SDS011;38483;42.620;25.394;2023-03-14T03:15:57;9.07;;;6.77;;
52590;SDS011;38483;42.620;25.394;2023-03-14T03:18:24;12.27;;;6.40;;
52590;SDS011;38483;42.620;25.394;2023-03-14T03:20:51;7.40;;;5.53;;
52590;SDS011;38483;42.620;25.394;2023-03-14T03:23:18;8.70;;;5.60;;
52590;SDS011;38483;42.620;25.394;2023-03-14T03:25:51;7.30;;;5.00;;
52590;SDS011;38483;42.620;25.394;2023-03-14T03:28:18;8.57;;;4.73;;
52590;SDS011;38483;42.620;25.394;2023-03-14T03:30:46;7.97;;;5.47;;
52590;SDS011;38483;42.620;25.394;2023-03-14T03:33:14;8.37;;;5.57;;
52590;SDS011;38483;42.620;25.394;2023-03-14T03:35:47;11.97;;;6.00;;
52590;SDS011;38483;42.620;25.394;2023-03-14T03:38:25;7.23;;;6.30;;
52590;SDS011;38483;42.620;25.394;2023-03-14T03:40:53;8.87;;;6.43;;
52590;SDS011;38483;42.620;25.394;2023-03-14T03:43:24;8.07;;;6.33;;
52590;SDS011;38483;42.620;25.394;2023-03-14T03:45:51;9.83;;;6.60;;
52590;SDS011;38483;42.620;25.394;2023-03-14T03:48:19;9.50;;;6.43;;
52590;SDS011;38483;42.620;25.394;2023-03-14T03:50:46;8.40;;;6.47;;
52590;SDS011;38483;42.620;25.394;2023-03-14T03:53:17;10.00;;;6.40;;
52590;SDS011;38483;42.620;25.394;2023-03-14T03:55:59;8.63;;;6.40;;
52590;SDS011;38483;42.620;25.394;2023-03-14T03:58:26;7.80;;;5.70;;
52590;SDS011;38483;42.620;25.394;2023-03-14T04:00:53;6.63;;;5.30;;
52590;SDS011;38483;42.620;25.394;2023-03-14T04:03:20;8.30;;;5.20;;
52590;SDS011;38483;42.620;25.394;2023-03-14T04:05:57;8.00;;;5.13;;
52590;SDS011;38483;42.620;25.394;2023-03-14T04:08:25;6.93;;;4.77;;
52590;SDS011;38483;42.620;25.394;2023-03-14T04:10:56;7.33;;;5.30;;
52590;SDS011;38483;42.620;25.394;2023-03-14T04:13:38;8.30;;;5.10;;
52590;SDS011;38483;42.620;25.394;2023-03-14T04:16:09;9.40;;;6.20;;
52590;SDS011;38483;42.620;25.394;2023-03-14T04:18:42;5.93;;;4.90;;
52590;SDS011;38483;42.620;25.394;2023-03-14T04:21:09;5.27;;;4.47;;
52590;SDS011;38483;42.620;25.394;2023-03-14T04:23:45;6.63;;;4.90;;
52590;SDS011;38483;42.620;25.394;2023-03-14T04:26:13;10.13;;;6.93;;
52590;SDS011;38483;42.620;25.394;2023-03-14T04:28:40;11.53;;;7.93;;
52590;SDS011;38483;42.620;25.394;2023-03-14T04:31:08;11.23;;;8.13;;
52590;SDS011;38483;42.620;25.394;2023-03-14T04:33:36;13.63;;;8.77;;
52590;SDS011;38483;42.620;25.394;2023-03-14T04:36:04;14.97;;;8.70;;
52590;SDS011;38483;42.620;25.394;2023-03-14T04:38:32;17.00;;;10.13;;
52590;SDS011;38483;42.620;25.394;2023-03-14T04:40:59;15.27;;;10.40;;
52590;SDS011;38483;42.620;25.394;2023-03-14T04:43:30;15.77;;;10.97;;
52590;SDS011;38483;42.620;25.394;2023-03-14T04:46:07;15.10;;;9.47;;
52590;SDS011;38483;42.620;25.394;2023-03-14T04:48:34;14.20;;;8.80;;
52590;SDS011;38483;42.620;25.394;2023-03-14T04:51:02;12.33;;;9.27;;
52590;SDS011;38483;42.620;25.394;2023-03-14T04:53:31;17.33;;;11.03;;
52590;SDS011;38483;42.620;25.394;2023-03-14T04:56:00;12.90;;;8.93;;
52590;SDS011;38483;42.620;25.394;2023-03-14T04:58:34;13.60;;;9.47;;
52590;SDS011;38483;42.620;25.394;2023-03-14T05:01:03;18.43;;;11.07;;
52590;SDS011;38483;42.620;25.394;2023-03-14T05:03:46;19.87;;;11.83;;
52590;SDS011;38483;42.620;25.394;2023-03-14T05:06:20;14.47;;;10.07;;
52590;SDS011;38483;42.620;25.394;2023-03-14T05:09:04;19.40;;;9.07;;
52590;SDS011;38483;42.620;25.394;2023-03-14T05:11:50;15.37;;;7.50;;
52590;SDS011;38483;42.620;25.394;2023-03-14T05:14:23;13.60;;;8.40;;
52590;SDS011;38483;42.620;25.394;2023-03-14T05:17:09;12.57;;;6.70;;
52590;SDS011;38483;42.620;25.394;2023-03-14T05:19:55;14.00;;;7.03;;
52590;SDS011;38483;42.620;25.394;2023-03-14T05:22:45;11.27;;;6.60;;
52590;SDS011;38483;42.620;25.394;2023-03-14T05:25:44;10.80;;;5.17;;
52590;SDS011;38483;42.620;25.394;2023-03-14T05:28:31;11.03;;;5.77;;
52590;SDS011;38483;42.620;25.394;2023-03-14T05:31:16;9.10;;;5.47;;
52590;SDS011;38483;42.620;25.394;2023-03-14T05:33:46;8.47;;;4.90;;
52590;SDS011;38483;42.620;25.394;2023-03-14T05:36:31;9.97;;;5.67;;
52590;SDS011;38483;42.620;25.394;2023-03-14T05:38:58;7.83;;;5.07;;
52590;SDS011;38483;42.620;25.394;2023-03-14T05:41:37;8.90;;;6.03;;
52590;SDS011;38483;42.620;25.394;2023-03-14T05:44:26;9.00;;;6.93;;
52590;SDS011;38483;42.620;25.394;2023-03-14T05:46:53;13.93;;;6.23;;
52590;SDS011;38483;42.620;25.394;2023-03-14T05:49:20;10.83;;;5.93;;
52590;SDS011;38483;42.620;25.394;2023-03-14T05:52:05;8.07;;;6.67;;
52590;SDS011;38483;42.620;25.394;2023-03-14T05:54:45;8.97;;;6.47;;
52590;SDS011;38483;42.620;25.394;2023-03-14T05:57:12;12.23;;;6.93;;
52590;SDS011;38483;42.620;25.394;2023-03-14T05:59:51;10.03;;;7.60;;
52590;SDS011;38483;42.620;25.394;2023-03-14T06:02:47;9.40;;;6.27;;
52590;SDS011;38483;42.620;25.394;2023-03-14T06:05:21;10.67;;;6.20;;
52590;SDS011;38483;42.620;25.394;2023-03-14T06:07:54;8.13;;;5.73;;
52590;SDS011;38483;42.620;25.394;2023-03-14T06:10:21;9.20;;;7.20;;
52590;SDS011;38483;42.620;25.394;2023-03-14T06:12:48;12.93;;;7.10;;
52590;SDS011;38483;42.620;25.394;2023-03-14T06:15:15;8.40;;;6.70;;
52590;SDS011;38483;42.620;25.394;2023-03-14T06:17:45;7.50;;;6.23;;
52590;SDS011;38483;42.620;25.394;2023-03-14T06:20:13;7.67;;;5.80;;
52590;SDS011;38483;42.620;25.394;2023-03-14T06:22:40;9.33;;;6.23;;
52590;SDS011;38483;42.620;25.394;2023-03-14T06:25:10;7.97;;;5.70;;
52590;SDS011;38483;42.620;25.394;2023-03-14T06:27:38;6.80;;;5.00;;
52590;SDS011;38483;42.620;25.394;2023-03-14T06:30:05;7.30;;;5.70;;
52590;SDS011;38483;42.620;25.394;2023-03-14T06:32:33;9.30;;;6.47;;
52590;SDS011;38483;42.620;25.394;2023-03-14T06:35:05;6.60;;;5.57;;
52590;SDS011;38483;42.620;25.394;2023-03-14T06:37:36;7.47;;;6.10;;
52590;SDS011;38483;42.620;25.394;2023-03-14T06:40:03;8.87;;;6.63;;
52590;SDS011;38483;42.620;25.394;2023-03-14T06:42:48;9.40;;;7.03;;
52590;SDS011;38483;42.620;25.394;2023-03-14T06:45:16;8.93;;;6.40;;
52590;SDS011;38483;42.620;25.394;2023-03-14T06:47:44;9.70;;;6.97;;
52590;SDS011;38483;42.620;25.394;2023-03-14T06:50:11;9.60;;;7.43;;
52590;SDS011;38483;42.620;25.394;2023-03-14T06:52:39;11.70;;;6.77;;
52590;SDS011;38483;42.620;25.394;2023-03-14T06:55:18;9.87;;;7.67;;
52590;SDS011;38483;42.620;25.394;2023-03-14T06:57:48;11.17;;;7.90;;
52590;SDS011;38483;42.620;25.394;2023-03-14T07:00:15;14.27;;;7.70;;
52590;SDS011;38483;42.620;25.394;2023-03-14T07:02:42;12.63;;;7.63;;
52590;SDS011;38483;42.620;25.394;2023-03-14T07:05:27;14.20;;;8.77;;
52590;SDS011;38483;42.620;25.394;2023-03-14T07:07:54;12.57;;;7.63;;
52590;SDS011;38483;42.620;25.394;2023-03-14T07:10:21;12.47;;;7.70;;
52590;SDS011;38483;42.620;25.394;2023-03-14T07:12:49;9.97;;;6.60;;
52590;SDS011;38483;42.620;25.394;2023-03-14T07:15:16;12.57;;;7.10;;
52590;SDS011;38483;42.620;25.394;2023-03-14T07:17:49;6.87;;;5.40;;
52590;SDS011;38483;42.620;25.394;2023-03-14T07:20:19;7.13;;;4.80;;
52590;SDS011;38483;42.620;25.394;2023-03-14T07:22:49;9.90;;;6.30;;
52590;SDS011;38483;42.620;25.394;2023-03-14T07:25:23;10.97;;;6.50;;
52590;SDS011;38483;42.620;25.394;2023-03-14T07:27:50;9.30;;;5.80;;
52590;SDS011;38483;42.620;25.394;2023-03-14T07:30:17;5.77;;;3.50;;
52590;SDS011;38483;42.620;25.394;2023-03-14T07:32:45;6.00;;;4.80;;
52590;SDS011;38483;42.620;25.394;2023-03-14T07:35:13;4.47;;;3.47;;
52590;SDS011;38483;42.620;25.394;2023-03-14T07:37:41;6.60;;;4.30;;
52590;SDS011;38483;42.620;25.394;2023-03-14T07:40:09;11.13;;;3.87;;
52590;SDS011;38483;42.620;25.394;2023-03-14T07:42:38;4.87;;;3.70;;
52590;SDS011;38483;42.620;25.394;2023-03-14T07:45:23;8.77;;;3.93;;
52590;SDS011;38483;42.620;25.394;2023-03-14T07:47:50;6.47;;;3.90;;
52590;SDS011;38483;42.620;25.394;2023-03-14T07:50:17;7.30;;;4.27;;
52590;SDS011;38483;42.620;25.394;2023-03-14T07:52:45;6.80;;;4.23;;
52590;SDS011;38483;42.620;25.394;2023-03-14T07:55:12;5.30;;;3.00;;
52590;SDS011;38483;42.620;25.394;2023-03-14T07:57:40;6.60;;;4.60;;
52590;SDS011;38483;42.620;25.394;2023-03-14T08:00:07;5.30;;;4.20;;
52590;SDS011;38483;42.620;25.394;2023-03-14T08:02:39;9.90;;;3.70;;
52590;SDS011;38483;42.620;25.394;2023-03-14T08:05:06;8.37;;;3.23;;
52590;SDS011;38483;42.620;25.394;2023-03-14T08:07:34;4.13;;;2.83;;
52590;SDS011;38483;42.620;25.394;2023-03-14T08:10:01;6.10;;;4.37;;
52590;SDS011;38483;42.620;25.394;2023-03-14T08:12:29;4.67;;;3.10;;
52590;SDS011;38483;42.620;25.394;2023-03-14T08:14:56;8.27;;;4.37;;
52590;SDS011;38483;42.620;25.394;2023-03-14T08:17:22;4.17;;;3.27;;
52590;SDS011;38483;42.620;25.394;2023-03-14T08:19:49;5.20;;;2.93;;
52590;SDS011;38483;42.620;25.394;2023-03-14T08:22:16;4.23;;;3.77;;
52590;SDS011;38483;42.620;25.394;2023-03-14T08:24:45;3.47;;;2.87;;
52590;SDS011;38483;42.620;25.394;2023-03-14T08:27:12;10.03;;;5.60;;
52590;SDS011;38483;42.620;25.394;2023-03-14T08:29:41;3.53;;;2.30;;
52590;SDS011;38483;42.620;25.394;2023-03-14T08:32:08;4.07;;;2.77;;
52590;SDS011;38483;42.620;25.394;2023-03-14T08:34:36;4.70;;;2.93;;
52590;SDS011;38483;42.620;25.394;2023-03-14T08:37:04;4.97;;;3.20;;
52590;SDS011;38483;42.620;25.394;2023-03-14T08:39:49;5.37;;;2.60;;
52590;SDS011;38483;42.620;25.394;2023-03-14T08:42:17;3.30;;;2.50;;
52590;SDS011;38483;42.620;25.394;2023-03-14T08:44:45;4.17;;;2.40;;
52590;SDS011;38483;42.620;25.394;2023-03-14T08:47:12;2.27;;;2.00;;
52590;SDS011;38483;42.620;25.394;2023-03-14T08:49:39;4.20;;;2.70;;
52590;SDS011;38483;42.620;25.394;2023-03-14T08:52:07;2.90;;;2.20;;
52590;SDS011;38483;42.620;25.394;2023-03-14T08:54:34;3.97;;;2.73;;
52590;SDS011;38483;42.620;25.394;2023-03-14T08:57:01;4.87;;;2.03;;
52590;SDS011;38483;42.620;25.394;2023-03-14T08:59:28;2.30;;;1.93;;
52590;SDS011;38483;42.620;25.394;2023-03-14T09:01:55;5.93;;;1.90;;
52590;SDS011;38483;42.620;25.394;2023-03-14T09:04:22;3.33;;;2.40;;
52590;SDS011;38483;42.620;25.394;2023-03-14T09:06:49;4.53;;;2.40;;
52590;SDS011;38483;42.620;25.394;2023-03-14T09:09:16;3.20;;;2.90;;
52590;SDS011;38483;42.620;25.394;2023-03-14T09:11:43;4.30;;;2.20;;
52590;SDS011;38483;42.620;25.394;2023-03-14T09:14:10;4.10;;;3.20;;
52590;SDS011;38483;42.620;25.394;2023-03-14T09:16:37;4.47;;;2.37;;
52590;SDS011;38483;42.620;25.394;2023-03-14T09:19:04;5.07;;;2.37;;
52590;SDS011;38483;42.620;25.394;2023-03-14T09:21:32;3.33;;;2.27;;
52590;SDS011;38483;42.620;25.394;2023-03-14T09:23:59;4.20;;;3.43;;
52590;SDS011;38483;42.620;25.394;2023-03-14T09:26:26;4.33;;;2.37;;
52590;SDS011;38483;42.620;25.394;2023-03-14T09:28:53;2.63;;;2.30;;
52590;SDS011;38483;42.620;25.394;2023-03-14T09:31:22;4.03;;;2.70;;
52590;SDS011;38483;42.620;25.394;2023-03-14T09:33:49;2.87;;;2.50;;
52590;SDS011;38483;42.620;25.394;2023-03-14T09:36:16;5.00;;;2.93;;
52590;SDS011;38483;42.620;25.394;2023-03-14T09:38:43;4.13;;;2.83;;
52590;SDS011;38483;42.620;25.394;2023-03-14T09:41:32;4.27;;;2.27;;
52590;SDS011;38483;42.620;25.394;2023-03-14T09:44:01;4.50;;;2.50;;
52590;SDS011;38483;42.620;25.394;2023-03-14T09:46:36;4.57;;;2.60;;
52590;SDS011;38483;42.620;25.394;2023-03-14T09:49:09;4.10;;;2.50;;
52590;SDS011;38483;42.620;25.394;2023-03-14T09:51:48;2.23;;;2.00;;
52590;SDS011;38483;42.620;25.394;2023-03-14T09:54:24;6.20;;;2.43;;
52590;SDS011;38483;42.620;25.394;2023-03-14T09:56:53;4.20;;;2.90;;
52590;SDS011;38483;42.620;25.394;2023-03-14T09:59:21;3.90;;;2.23;;
52590;SDS011;38483;42.620;25.394;2023-03-14T10:01:48;5.13;;;2.87;;
52590;SDS011;38483;42.620;25.394;2023-03-14T10:04:17;5.97;;;2.87;;
52590;SDS011;38483;42.620;25.394;2023-03-14T10:06:49;6.30;;;3.00;;
52590;SDS011;38483;42.620;25.394;2023-03-14T10:09:20;4.57;;;2.90;;
52590;SDS011;38483;42.620;25.394;2023-03-14T10:11:55;10.17;;;3.17;;
52590;SDS011;38483;42.620;25.394;2023-03-14T10:14:34;5.93;;;3.30;;
52590;SDS011;38483;42.620;25.394;2023-03-14T10:17:06;4.53;;;3.13;;
52590;SDS011;38483;42.620;25.394;2023-03-14T10:19:36;4.30;;;2.33;;
52590;SDS011;38483;42.620;25.394;2023-03-14T10:22:04;2.70;;;2.37;;
52590;SDS011;38483;42.620;25.394;2023-03-14T10:24:33;3.27;;;2.57;;
52590;SDS011;38483;42.620;25.394;2023-03-14T10:27:04;5.20;;;2.80;;
52590;SDS011;38483;42.620;25.394;2023-03-14T10:33:09;2.67;;;2.17;;
52590;SDS011;38483;42.620;25.394;2023-03-14T10:38:31;6.70;;;2.50;;
52590;SDS011;38483;42.620;25.394;2023-03-14T10:41:00;3.60;;;2.27;;
52590;SDS011;38483;42.620;25.394;2023-03-14T10:43:32;3.00;;;2.00;;
52590;SDS011;38483;42.620;25.394;2023-03-14T10:46:17;3.90;;;1.93;;
52590;SDS011;38483;42.620;25.394;2023-03-14T10:49:16;3.00;;;2.00;;
52590;SDS011;38483;42.620;25.394;2023-03-14T10:51:52;3.20;;;2.70;;
52590;SDS011;38483;42.620;25.394;2023-03-14T10:54:20;4.57;;;3.13;;
52590;SDS011;38483;42.620;25.394;2023-03-14T10:56:56;2.20;;;2.00;;
52590;SDS011;38483;42.620;25.394;2023-03-14T10:59:24;6.77;;;2.20;;
52590;SDS011;38483;42.620;25.394;2023-03-14T11:05:35;8.77;;;4.87;;
52590;SDS011;38483;42.620;25.394;2023-03-14T11:11:07;3.47;;;1.93;;
52590;SDS011;38483;42.620;25.394;2023-03-14T11:13:51;3.37;;;2.87;;
52590;SDS011;38483;42.620;25.394;2023-03-14T11:19:32;2.90;;;2.00;;
52590;SDS011;38483;42.620;25.394;2023-03-14T11:22:43;3.47;;;1.97;;
52590;SDS011;38483;42.620;25.394;2023-03-14T11:25:37;3.60;;;1.93;;
52590;SDS011;38483;42.620;25.394;2023-03-14T11:28:18;5.43;;;2.90;;
52590;SDS011;38483;42.620;25.394;2023-03-14T11:33:29;2.57;;;1.70;;
52590;SDS011;38483;42.620;25.394;2023-03-14T11:36:06;3.00;;;1.90;;
52590;SDS011;38483;42.620;25.394;2023-03-14T11:38:55;3.43;;;2.30;;
52590;SDS011;38483;42.620;25.394;2023-03-14T11:41:25;3.43;;;2.83;;
52590;SDS011;38483;42.620;25.394;2023-03-14T11:43:55;8.37;;;3.03;;
52590;SDS011;38483;42.620;25.394;2023-03-14T11:46:29;6.90;;;2.60;;
52590;SDS011;38483;42.620;25.394;2023-03-14T11:49:03;5.03;;;2.53;;
52590;SDS011;38483;42.620;25.394;2023-03-14T11:51:38;4.17;;;2.20;;
52590;SDS011;38483;42.620;25.394;2023-03-14T11:57:18;5.03;;;2.33;;
52590;SDS011;38483;42.620;25.394;2023-03-14T11:59:49;5.07;;;2.17;;
52590;SDS011;38483;42.620;25.394;2023-03-14T12:10:24;3.47;;;2.00;;
52590;SDS011;38483;42.620;25.394;2023-03-14T12:12:51;4.07;;;2.13;;
52590;SDS011;38483;42.620;25.394;2023-03-14T12:15:19;3.60;;;2.17;;
52590;SDS011;38483;42.620;25.394;2023-03-14T12:17:52;5.17;;;1.87;;
52590;SDS011;38483;42.620;25.394;2023-03-14T12:20:22;4.60;;;2.23;;
52590;SDS011;38483;42.620;25.394;2023-03-14T12:25:32;6.47;;;2.40;;
52590;SDS011;38483;42.620;25.394;2023-03-14T12:28:22;3.30;;;1.73;;
52590;SDS011;38483;42.620;25.394;2023-03-14T12:30:56;3.27;;;1.87;;
52590;SDS011;38483;42.620;25.394;2023-03-14T12:33:43;3.40;;;2.10;;
52590;SDS011;38483;42.620;25.394;2023-03-14T12:36:11;3.20;;;1.77;;
52590;SDS011;38483;42.620;25.394;2023-03-14T12:39:03;3.43;;;1.93;;
52590;SDS011;38483;42.620;25.394;2023-03-14T12:41:44;4.53;;;2.10;;
52590;SDS011;38483;42.620;25.394;2023-03-14T12:44:57;7.07;;;2.37;;
52590;SDS011;38483;42.620;25.394;2023-03-14T12:47:39;3.33;;;2.27;;
52590;SDS011;38483;42.620;25.394;2023-03-14T12:50:07;6.93;;;3.13;;
52590;SDS011;38483;42.620;25.394;2023-03-14T12:55:55;3.27;;;2.33;;
52590;SDS011;38483;42.620;25.394;2023-03-14T12:58:35;3.23;;;2.30;;
52590;SDS011;38483;42.620;25.394;2023-03-14T13:01:17;3.53;;;1.70;;
52590;SDS011;38483;42.620;25.394;2023-03-14T13:11:56;3.23;;;2.20;;
52590;SDS011;38483;42.620;25.394;2023-03-14T13:14:29;3.87;;;1.80;;
52590;SDS011;38483;42.620;25.394;2023-03-14T13:17:01;3.00;;;1.90;;
52590;SDS011;38483;42.620;25.394;2023-03-14T13:19:45;4.73;;;1.87;;
52590;SDS011;38483;42.620;25.394;2023-03-14T13:22:26;4.07;;;2.90;;
52590;SDS011;38483;42.620;25.394;2023-03-14T13:25:10;5.20;;;2.17;;
52590;SDS011;38483;42.620;25.394;2023-03-14T13:27:38;5.40;;;2.30;;
52590;SDS011;38483;42.620;25.394;2023-03-14T13:30:11;7.27;;;3.30;;
52590;SDS011;38483;42.620;25.394;2023-03-14T13:32:44;3.87;;;2.00;;
52590;SDS011;38483;42.620;25.394;2023-03-14T13:35:19;6.30;;;4.13;;
52590;SDS011;38483;42.620;25.394;2023-03-14T13:38:01;8.63;;;2.60;;
52590;SDS011;38483;42.620;25.394;2023-03-14T13:40:37;2.20;;;2.00;;
52590;SDS011;38483;42.620;25.394;2023-03-14T13:43:10;5.80;;;1.73;;
52590;SDS011;38483;42.620;25.394;2023-03-14T13:45:54;5.87;;;2.57;;
52590;SDS011;38483;42.620;25.394;2023-03-14T13:48:25;3.90;;;1.43;;
52590;SDS011;38483;42.620;25.394;2023-03-14T13:50:56;3.53;;;2.27;;
52590;SDS011;38483;42.620;25.394;2023-03-14T13:53:27;3.67;;;2.50;;
52590;SDS011;38483;42.620;25.394;2023-03-14T13:55:54;4.23;;;2.40;;
52590;SDS011;38483;42.620;25.394;2023-03-14T14:00:57;3.93;;;2.70;;
52590;SDS011;38483;42.620;25.394;2023-03-14T14:03:27;2.93;;;2.10;;
52590;SDS011;38483;42.620;25.394;2023-03-14T14:05:58;3.63;;;2.50;;
52590;SDS011;38483;42.620;25.394;2023-03-14T14:08:25;5.37;;;2.97;;
52590;SDS011;38483;42.620;25.394;2023-03-14T14:10:55;8.53;;;3.57;;
52590;SDS011;38483;42.620;25.394;2023-03-14T14:13:27;3.73;;;1.90;;
52590;SDS011;38483;42.620;25.394;2023-03-14T14:15:57;4.73;;;2.67;;
52590;SDS011;38483;42.620;25.394;2023-03-14T14:18:27;7.23;;;3.13;;
52590;SDS011;38483;42.620;25.394;2023-03-14T14:20:56;4.57;;;2.80;;
52590;SDS011;38483;42.620;25.394;2023-03-14T14:23:25;5.10;;;1.80;;
52590;SDS011;38483;42.620;25.394;2023-03-14T14:25:56;4.03;;;2.30;;
52590;SDS011;38483;42.620;25.394;2023-03-14T14:28:28;5.47;;;2.80;;
52590;SDS011;38483;42.620;25.394;2023-03-14T14:33:53;7.50;;;3.83;;
52590;SDS011;38483;42.620;25.394;2023-03-14T14:36:25;7.57;;;2.53;;
52590;SDS011;38483;42.620;25.394;2023-03-14T14:39:25;4.10;;;2.30;;
52590;SDS011;38483;42.620;25.394;2023-03-14T14:41:55;6.33;;;2.57;;
52590;SDS011;38483;42.620;25.394;2023-03-14T14:44:29;8.90;;;3.40;;
52590;SDS011;38483;42.620;25.394;2023-03-14T14:46:58;2.93;;;2.10;;
52590;SDS011;38483;42.620;25.394;2023-03-14T14:49:30;4.63;;;1.90;;
52590;SDS011;38483;42.620;25.394;2023-03-14T14:52:12;3.30;;;2.10;;
52590;SDS011;38483;42.620;25.394;2023-03-14T14:54:45;4.23;;;2.50;;
52590;SDS011;38483;42.620;25.394;2023-03-14T14:57:31;7.40;;;3.10;;
52590;SDS011;38483;42.620;25.394;2023-03-14T15:00:04;6.80;;;2.63;;
52590;SDS011;38483;42.620;25.394;2023-03-14T15:02:37;5.67;;;2.70;;
52590;SDS011;38483;42.620;25.394;2023-03-14T15:05:14;6.03;;;2.60;;
52590;SDS011;38483;42.620;25.394;2023-03-14T15:07:42;8.27;;;2.97;;
52590;SDS011;38483;42.620;25.394;2023-03-14T15:10:15;3.07;;;1.90;;
52590;SDS011;38483;42.620;25.394;2023-03-14T15:12:44;8.87;;;3.73;;
52590;SDS011;38483;42.620;25.394;2023-03-14T15:15:11;4.40;;;2.40;;
52590;SDS011;38483;42.620;25.394;2023-03-14T15:17:38;5.40;;;3.13;;
52590;SDS011;38483;42.620;25.394;2023-03-14T15:20:05;9.10;;;3.47;;
52590;SDS011;38483;42.620;25.394;2023-03-14T15:22:36;9.27;;;3.20;;
52590;SDS011;38483;42.620;25.394;2023-03-14T15:25:03;8.27;;;3.07;;
52590;SDS011;38483;42.620;25.394;2023-03-14T15:27:31;7.07;;;3.57;;
52590;SDS011;38483;42.620;25.394;2023-03-14T15:29:58;7.57;;;3.80;;
52590;SDS011;38483;42.620;25.394;2023-03-14T15:32:28;10.07;;;3.13;;
52590;SDS011;38483;42.620;25.394;2023-03-14T15:34:55;7.57;;;3.33;;
52590;SDS011;38483;42.620;25.394;2023-03-14T15:37:22;6.60;;;3.10;;
52590;SDS011;38483;42.620;25.394;2023-03-14T15:39:49;7.20;;;3.07;;
52590;SDS011;38483;42.620;25.394;2023-03-14T15:42:16;14.77;;;4.00;;
52590;SDS011;38483;42.620;25.394;2023-03-14T15:44:43;12.80;;;5.77;;
52590;SDS011;38483;42.620;25.394;2023-03-14T15:47:10;8.23;;;3.63;;
52590;SDS011;38483;42.620;25.394;2023-03-14T15:49:37;8.13;;;3.10;;
52590;SDS011;38483;42.620;25.394;2023-03-14T15:52:04;7.03;;;3.30;;
52590;SDS011;38483;42.620;25.394;2023-03-14T15:54:31;5.17;;;3.23;;